sensor_id;sensor_type;location;lat;lon;timestamp;pressure;altitude;pressure_sealevel;temperature;humidity
6514;BME280;3290;47.716;9.070;2022-11-15T00:00:52;96853.97;;;8.13;100.00
6514;BME280;3290;47.716;9.070;2022-11-15T00:03:20;96859.38;;;8.12;100.00
6514;BME280;3290;47.716;9.070;2022-11-15T00:05:46;96856.75;;;8.05;100.00
6514;BME280;3290;47.716;9.070;2022-11-15T00:08:11;96870.63;;;8.32;100.00
6514;BME280;3290;47.716;9.070;2022-11-15T00:10:37;96861.00;;;8.38;100.00
6514;BME280;3290;47.716;9.070;2022-11-15T00:13:06;96859.78;;;8.35;100.00
6514;BME280;3290;47.716;9.070;2022-11-15T00:15:35;96852.19;;;8.14;100.00
6514;BME280;3290;47.716;9.070;2022-11-15T00:18:00;96851.75;;;8.17;100.00
6514;BME280;3290;47.716;9.070;2022-11-15T00:20:26;96854.97;;;8.25;100.00
6514;BME280;3290;47.716;9.070;2022-11-15T00:22:51;96847.53;;;8.22;100.00
6514;BME280;3290;47.716;9.070;2022-11-15T00:25:16;96850.31;;;8.08;100.00
6514;BME280;3290;47.716;9.070;2022-11-15T00:27:42;96858.34;;;8.06;100.00
6514;BME280;3290;47.716;9.070;2022-11-15T00:30:08;96851.97;;;8.22;100.00
6514;BME280;3290;47.716;9.070;2022-11-15T00:32:33;96848.56;;;8.21;100.00
6514;BME280;3290;47.716;9.070;2022-11-15T00:34:58;96841.50;;;8.02;100.00
6514;BME280;3290;47.716;9.070;2022-11-15T00:37:24;96844.28;;;7.75;100.00
6514;BME280;3290;47.716;9.070;2022-11-15T00:39:49;96841.09;;;7.86;100.00
6514;BME280;3290;47.716;9.070;2022-11-15T00:42:14;96838.28;;;7.68;100.00
6514;BME280;3290;47.716;9.070;2022-11-15T00:44:40;96836.47;;;7.75;100.00
6514;BME280;3290;47.716;9.070;2022-11-15T00:47:05;96839.28;;;7.99;100.00
6514;BME280;3290;47.716;9.070;2022-11-15T00:49:30;96841.47;;;7.96;100.00
6514;BME280;3290;47.716;9.070;2022-11-15T00:51:56;96833.28;;;7.86;100.00
6514;BME280;3290;47.716;9.070;2022-11-15T00:54:21;96839.69;;;7.90;100.00
6514;BME280;3290;47.716;9.070;2022-11-15T00:56:46;96842.50;;;7.89;100.00
6514;BME280;3290;47.716;9.070;2022-11-15T00:59:12;96830.44;;;7.94;100.00
6514;BME280;3290;47.716;9.070;2022-11-15T01:01:37;96833.28;;;7.86;100.00
6514;BME280;3290;47.716;9.070;2022-11-15T01:04:03;96832.06;;;7.89;100.00
6514;BME280;3290;47.716;9.070;2022-11-15T01:06:28;96831.66;;;7.85;100.00
6514;BME280;3290;47.716;9.070;2022-11-15T01:08:53;96829.25;;;8.09;100.00
6514;BME280;3290;47.716;9.070;2022-11-15T01:11:19;96824.47;;;8.19;100.00
6514;BME280;3290;47.716;9.070;2022-11-15T01:13:44;96819.63;;;7.97;100.00
6514;BME280;3290;47.716;9.070;2022-11-15T01:16:12;96817.88;;;8.10;100.00
6514;BME280;3290;47.716;9.070;2022-11-15T01:18:39;96815.81;;;8.06;100.00
6514;BME280;3290;47.716;9.070;2022-11-15T01:21:15;96813.19;;;7.80;100.00
6514;BME280;3290;47.716;9.070;2022-11-15T01:23:41;96815.22;;;7.97;100.00
6514;BME280;3290;47.716;9.070;2022-11-15T01:26:10;96816.03;;;8.11;100.00
6514;BME280;3290;47.716;9.070;2022-11-15T01:28:37;96818.47;;;8.12;100.00
6514;BME280;3290;47.716;9.070;2022-11-15T01:31:06;96804.00;;;8.10;100.00
6514;BME280;3290;47.716;9.070;2022-11-15T01:33:34;96810.44;;;8.14;100.00
6514;BME280;3290;47.716;9.070;2022-11-15T01:36:04;96809.03;;;8.24;100.00
6514;BME280;3290;47.716;9.070;2022-11-15T01:38:30;96810.84;;;8.11;100.00
6514;BME280;3290;47.716;9.070;2022-11-15T01:40:56;96806.16;;;8.06;100.00
6514;BME280;3290;47.716;9.070;2022-11-15T01:43:28;96809.63;;;8.20;100.00
6514;BME280;3290;47.716;9.070;2022-11-15T01:45:58;96810.19;;;8.09;100.00
6514;BME280;3290;47.716;9.070;2022-11-15T01:48:33;96797.53;;;7.99;100.00
6514;BME280;3290;47.716;9.070;2022-11-15T01:51:01;96790.94;;;8.10;100.00
6514;BME280;3290;47.716;9.070;2022-11-15T01:53:29;96791.13;;;7.83;100.00
6514;BME280;3290;47.716;9.070;2022-11-15T01:55:57;96791.13;;;7.76;100.00
6514;BME280;3290;47.716;9.070;2022-11-15T01:58:23;96789.13;;;7.85;100.00
6514;BME280;3290;47.716;9.070;2022-11-15T02:00:48;96785.13;;;7.89;100.00
6514;BME280;3290;47.716;9.070;2022-11-15T02:03:15;96778.69;;;7.78;100.00
6514;BME280;3290;47.716;9.070;2022-11-15T02:05:41;96781.72;;;7.75;100.00
6514;BME280;3290;47.716;9.070;2022-11-15T02:08:08;96772.88;;;7.83;100.00
6514;BME280;3290;47.716;9.070;2022-11-15T02:10:33;96773.50;;;7.91;100.00
6514;BME280;3290;47.716;9.070;2022-11-15T02:12:59;96769.88;;;7.79;100.00
6514;BME280;3290;47.716;9.070;2022-11-15T02:15:33;96762.66;;;7.68;100.00
6514;BME280;3290;47.716;9.070;2022-11-15T02:18:11;96758.25;;;7.56;100.00
6514;BME280;3290;47.716;9.070;2022-11-15T02:20:55;96763.06;;;7.53;100.00
6514;BME280;3290;47.716;9.070;2022-11-15T02:29:04;96759.47;;;7.66;100.00
6514;BME280;3290;47.716;9.070;2022-11-15T02:31:53;96744.97;;;7.38;100.00
6514;BME280;3290;47.716;9.070;2022-11-15T02:37:28;96736.59;;;7.68;100.00
6514;BME280;3290;47.716;9.070;2022-11-15T02:42:26;96733.38;;;7.47;100.00
6514;BME280;3290;47.716;9.070;2022-11-15T02:45:17;96735.56;;;7.69;100.00
6514;BME280;3290;47.716;9.070;2022-11-15T02:47:46;96738.38;;;7.68;100.00
6514;BME280;3290;47.716;9.070;2022-11-15T02:50:20;96740.59;;;7.77;100.00
6514;BME280;3290;47.716;9.070;2022-11-15T02:52:50;96730.16;;;7.90;100.00
6514;BME280;3290;47.716;9.070;2022-11-15T02:55:37;96728.34;;;7.97;100.00
6514;BME280;3290;47.716;9.070;2022-11-15T02:58:23;96736.75;;;7.93;100.00
6514;BME280;3290;47.716;9.070;2022-11-15T03:01:02;96731.38;;;7.88;100.00
6514;BME280;3290;47.716;9.070;2022-11-15T03:06:19;96731.38;;;7.68;100.00
6514;BME280;3290;47.716;9.070;2022-11-15T03:11:41;96727.16;;;7.67;100.00
6514;BME280;3290;47.716;9.070;2022-11-15T03:20:04;96726.53;;;7.59;100.00
6514;BME280;3290;47.716;9.070;2022-11-15T03:22:33;96721.75;;;7.75;100.00
6514;BME280;3290;47.716;9.070;2022-11-15T03:25:04;96718.91;;;7.57;100.00
6514;BME280;3290;47.716;9.070;2022-11-15T03:27:34;96715.72;;;7.62;100.00
6514;BME280;3290;47.716;9.070;2022-11-15T03:30:04;96719.94;;;7.76;100.00
6514;BME280;3290;47.716;9.070;2022-11-15T03:32:35;96710.91;;;7.78;100.00
6514;BME280;3290;47.716;9.070;2022-11-15T03:35:05;96713.31;;;7.73;100.00
6514;BME280;3290;47.716;9.070;2022-11-15T03:37:40;96707.31;;;7.86;100.00
6514;BME280;3290;47.716;9.070;2022-11-15T03:40:07;96709.69;;;7.87;100.00
6514;BME280;3290;47.716;9.070;2022-11-15T03:42:42;96703.25;;;8.09;100.00
6514;BME280;3290;47.716;9.070;2022-11-15T03:47:45;96697.66;;;7.86;100.00
6514;BME280;3290;47.716;9.070;2022-11-15T03:50:15;96697.84;;;7.91;100.00
6514;BME280;3290;47.716;9.070;2022-11-15T03:52:42;96694.25;;;7.73;100.00
6514;BME280;3290;47.716;9.070;2022-11-15T03:55:12;96696.06;;;7.34;100.00
6514;BME280;3290;47.716;9.070;2022-11-15T03:57:38;96695.47;;;7.45;100.00
6514;BME280;3290;47.716;9.070;2022-11-15T04:00:04;96689.28;;;7.46;100.00
6514;BME280;3290;47.716;9.070;2022-11-15T04:02:29;96693.47;;;7.47;100.00
6514;BME280;3290;47.716;9.070;2022-11-15T04:04:55;96695.25;;;7.59;100.00
6514;BME280;3290;47.716;9.070;2022-11-15T04:07:20;96696.09;;;7.53;100.00
6514;BME280;3290;47.716;9.070;2022-11-15T04:09:46;96681.22;;;7.54;100.00
6514;BME280;3290;47.716;9.070;2022-11-15T04:12:35;96694.06;;;7.81;100.00
6514;BME280;3290;47.716;9.070;2022-11-15T04:15:04;96682.84;;;7.74;100.00
6514;BME280;3290;47.716;9.070;2022-11-15T04:20:03;96680.81;;;7.82;100.00
6514;BME280;3290;47.716;9.070;2022-11-15T04:22:48;96674.34;;;7.97;100.00
6514;BME280;3290;47.716;9.070;2022-11-15T04:25:31;96672.38;;;7.93;100.00
6514;BME280;3290;47.716;9.070;2022-11-15T04:27:57;96678.38;;;7.94;100.00
6514;BME280;3290;47.716;9.070;2022-11-15T04:30:22;96689.41;;;8.15;100.00
6514;BME280;3290;47.716;9.070;2022-11-15T04:32:47;96681.97;;;8.12;100.00
6514;BME280;3290;47.716;9.070;2022-11-15T04:35:13;96679.38;;;7.99;100.00
6514;BME280;3290;47.716;9.070;2022-11-15T04:37:38;96674.38;;;8.10;100.00
6514;BME280;3290;47.716;9.070;2022-11-15T04:40:04;96677.94;;;8.03;100.00
6514;BME280;3290;47.716;9.070;2022-11-15T04:42:29;96684.56;;;8.25;100.00
6514;BME280;3290;47.716;9.070;2022-11-15T04:44:55;96679.38;;;8.05;100.00
6514;BME280;3290;47.716;9.070;2022-11-15T04:47:21;96669.94;;;8.11;100.00
6514;BME280;3290;47.716;9.070;2022-11-15T04:49:46;96674.41;;;7.72;100.00
6514;BME280;3290;47.716;9.070;2022-11-15T04:52:11;96679.03;;;7.63;100.00
6514;BME280;3290;47.716;9.070;2022-11-15T04:54:37;96680.84;;;7.63;100.00
6514;BME280;3290;47.716;9.070;2022-11-15T04:57:02;96671.59;;;7.86;100.00
6514;BME280;3290;47.716;9.070;2022-11-15T04:59:27;96674.03;;;7.68;100.00
6514;BME280;3290;47.716;9.070;2022-11-15T05:01:53;96689.03;;;7.79;100.00
6514;BME280;3290;47.716;9.070;2022-11-15T05:04:18;96675.19;;;7.98;100.00
6514;BME280;3290;47.716;9.070;2022-11-15T05:06:48;96671.94;;;8.09;100.00
6514;BME280;3290;47.716;9.070;2022-11-15T05:09:14;96681.56;;;8.15;100.00
6514;BME280;3290;47.716;9.070;2022-11-15T05:11:40;96680.16;;;8.06;100.00
6514;BME280;3290;47.716;9.070;2022-11-15T05:14:05;96673.56;;;8.10;100.00
6514;BME280;3290;47.716;9.070;2022-11-15T05:16:30;96677.91;;;8.29;100.00
6514;BME280;3290;47.716;9.070;2022-11-15T05:18:56;96670.94;;;8.10;100.00
6514;BME280;3290;47.716;9.070;2022-11-15T05:21:22;96672.34;;;8.12;100.00
6514;BME280;3290;47.716;9.070;2022-11-15T05:23:47;96658.69;;;8.04;100.00
6514;BME280;3290;47.716;9.070;2022-11-15T05:26:14;96656.28;;;7.96;100.00
6514;BME280;3290;47.716;9.070;2022-11-15T05:28:40;96656.72;;;7.93;100.00
6514;BME280;3290;47.716;9.070;2022-11-15T05:31:07;96655.09;;;8.05;100.00
6514;BME280;3290;47.716;9.070;2022-11-15T05:33:34;96650.63;;;8.25;100.00
6514;BME280;3290;47.716;9.070;2022-11-15T05:36:04;96653.84;;;8.27;100.00
6514;BME280;3290;47.716;9.070;2022-11-15T05:38:33;96646.66;;;8.16;100.00
6514;BME280;3290;47.716;9.070;2022-11-15T05:41:00;96653.47;;;8.17;100.00
6514;BME280;3290;47.716;9.070;2022-11-15T05:43:26;96655.25;;;8.23;100.00
6514;BME280;3290;47.716;9.070;2022-11-15T05:45:52;96644.19;;;8.34;100.00
6514;BME280;3290;47.716;9.070;2022-11-15T05:48:18;96642.94;;;8.36;100.00
6514;BME280;3290;47.716;9.070;2022-11-15T05:50:45;96641.16;;;8.37;100.00
6514;BME280;3290;47.716;9.070;2022-11-15T05:53:13;96653.44;;;8.30;100.00
6514;BME280;3290;47.716;9.070;2022-11-15T05:55:40;96642.34;;;8.34;100.00
6514;BME280;3290;47.716;9.070;2022-11-15T05:58:06;96642.22;;;8.23;100.00
6514;BME280;3290;47.716;9.070;2022-11-15T06:00:32;96646.59;;;8.35;100.00
6514;BME280;3290;47.716;9.070;2022-11-15T06:02:57;96647.75;;;8.39;100.00
6514;BME280;3290;47.716;9.070;2022-11-15T06:05:23;96651.44;;;8.19;100.00
6514;BME280;3290;47.716;9.070;2022-11-15T06:07:48;96646.22;;;8.19;100.00
6514;BME280;3290;47.716;9.070;2022-11-15T06:10:13;96652.66;;;8.16;100.00
6514;BME280;3290;47.716;9.070;2022-11-15T06:12:39;96648.66;;;8.01;100.00
6514;BME280;3290;47.716;9.070;2022-11-15T06:15:04;96650.66;;;8.12;100.00
6514;BME280;3290;47.716;9.070;2022-11-15T06:17:30;96649.88;;;7.92;100.00
6514;BME280;3290;47.716;9.070;2022-11-15T06:19:55;96650.88;;;8.04;100.00
6514;BME280;3290;47.716;9.070;2022-11-15T06:22:21;96647.06;;;8.00;100.00
6514;BME280;3290;47.716;9.070;2022-11-15T06:24:46;96644.66;;;8.05;100.00
6514;BME280;3290;47.716;9.070;2022-11-15T06:27:11;96646.22;;;8.19;100.00
6514;BME280;3290;47.716;9.070;2022-11-15T06:29:37;96642.22;;;8.23;100.00
6514;BME280;3290;47.716;9.070;2022-11-15T06:32:02;96637.41;;;8.20;100.00
6514;BME280;3290;47.716;9.070;2022-11-15T06:34:28;96640.41;;;8.17;100.00
6514;BME280;3290;47.716;9.070;2022-11-15T06:36:53;96644.88;;;8.03;100.00
6514;BME280;3290;47.716;9.070;2022-11-15T06:39:18;96647.03;;;8.06;100.00
6514;BME280;3290;47.716;9.070;2022-11-15T06:41:44;96645.44;;;8.18;100.00
6514;BME280;3290;47.716;9.070;2022-11-15T06:44:09;96640.47;;;8.10;100.00
6514;BME280;3290;47.716;9.070;2022-11-15T06:46:34;96646.06;;;8.14;100.00
6514;BME280;3290;47.716;9.070;2022-11-15T06:49:00;96645.22;;;8.20;100.00
6514;BME280;3290;47.716;9.070;2022-11-15T06:51:25;96637.41;;;8.20;100.00
6514;BME280;3290;47.716;9.070;2022-11-15T06:53:50;96637.13;;;8.40;100.00
6514;BME280;3290;47.716;9.070;2022-11-15T06:56:16;96639.47;;;8.48;100.00
6514;BME280;3290;47.716;9.070;2022-11-15T06:58:41;96638.69;;;8.48;100.00
6514;BME280;3290;47.716;9.070;2022-11-15T07:01:09;96641.66;;;8.58;100.00
6514;BME280;3290;47.716;9.070;2022-11-15T07:03:39;96635.66;;;8.51;100.00
6514;BME280;3290;47.716;9.070;2022-11-15T07:06:05;96638.84;;;8.59;100.00
6514;BME280;3290;47.716;9.070;2022-11-15T07:08:30;96643.63;;;8.62;100.00
6514;BME280;3290;47.716;9.070;2022-11-15T07:11:06;96632.50;;;8.36;100.00
6514;BME280;3290;47.716;9.070;2022-11-15T07:13:33;96641.47;;;8.59;100.00
6514;BME280;3290;47.716;9.070;2022-11-15T07:16:07;96636.28;;;8.46;100.00
6514;BME280;3290;47.716;9.070;2022-11-15T07:18:37;96642.84;;;8.55;100.00
6514;BME280;3290;47.716;9.070;2022-11-15T07:21:04;96638.84;;;8.59;100.00
6514;BME280;3290;47.716;9.070;2022-11-15T07:23:30;96642.25;;;8.60;100.00
6514;BME280;3290;47.716;9.070;2022-11-15T07:25:58;96631.59;;;8.61;100.00
6514;BME280;3290;47.716;9.070;2022-11-15T07:28:25;96640.22;;;8.62;100.00
6514;BME280;3290;47.716;9.070;2022-11-15T07:30:51;96634.38;;;8.66;100.00
6514;BME280;3290;47.716;9.070;2022-11-15T07:33:16;96629.69;;;8.44;100.00
6514;BME280;3290;47.716;9.070;2022-11-15T07:35:41;96626.16;;;8.93;100.00
6514;BME280;3290;47.716;9.070;2022-11-15T07:38:08;96631.41;;;8.93;100.00
6514;BME280;3290;47.716;9.070;2022-11-15T07:40:34;96640.03;;;9.24;100.00
6514;BME280;3290;47.716;9.070;2022-11-15T07:43:06;96629.50;;;9.07;100.00
6514;BME280;3290;47.716;9.070;2022-11-15T07:45:32;96635.53;;;9.07;100.00
6514;BME280;3290;47.716;9.070;2022-11-15T07:48:01;96633.63;;;9.20;100.00
6514;BME280;3290;47.716;9.070;2022-11-15T07:50:26;96628.41;;;8.90;100.00
6514;BME280;3290;47.716;9.070;2022-11-15T07:52:59;96616.63;;;8.75;100.00
6514;BME280;3290;47.716;9.070;2022-11-15T07:55:25;96614.72;;;9.18;100.00
6514;BME280;3290;47.716;9.070;2022-11-15T07:57:52;96619.31;;;9.23;100.00
6514;BME280;3290;47.716;9.070;2022-11-15T08:00:18;96629.16;;;9.27;100.00
6514;BME280;3290;47.716;9.070;2022-11-15T08:02:44;96623.91;;;9.27;100.00
6514;BME280;3290;47.716;9.070;2022-11-15T08:05:09;96627.38;;;9.21;100.00
6514;BME280;3290;47.716;9.070;2022-11-15T08:07:34;96622.72;;;9.23;100.00
6514;BME280;3290;47.716;9.070;2022-11-15T08:10:00;96613.56;;;9.15;100.00
6514;BME280;3290;47.716;9.070;2022-11-15T08:12:31;96613.19;;;9.35;100.00
6514;BME280;3290;47.716;9.070;2022-11-15T08:14:56;96614.19;;;9.34;100.00
6514;BME280;3290;47.716;9.070;2022-11-15T08:17:23;96611.19;;;9.31;100.00
6514;BME280;3290;47.716;9.070;2022-11-15T08:19:48;96607.50;;;9.20;100.00
6514;BME280;3290;47.716;9.070;2022-11-15T08:22:14;96604.97;;;9.32;100.00
6514;BME280;3290;47.716;9.070;2022-11-15T08:24:39;96605.72;;;9.39;100.00
6514;BME280;3290;47.716;9.070;2022-11-15T08:27:05;96608.16;;;9.34;100.00
6514;BME280;3290;47.716;9.070;2022-11-15T08:29:40;96599.69;;;9.38;100.00
6514;BME280;3290;47.716;9.070;2022-11-15T08:32:06;96604.06;;;9.44;100.00
6514;BME280;3290;47.716;9.070;2022-11-15T08:34:32;96611.47;;;9.23;100.00
6514;BME280;3290;47.716;9.070;2022-11-15T08:36:58;96609.03;;;9.28;100.00
6514;BME280;3290;47.716;9.070;2022-11-15T08:39:23;96596.34;;;9.31;100.00
6514;BME280;3290;47.716;9.070;2022-11-15T08:41:48;96593.34;;;9.28;100.00
6514;BME280;3290;47.716;9.070;2022-11-15T08:44:13;96588.53;;;9.01;100.00
6514;BME280;3290;47.716;9.070;2022-11-15T08:46:39;96576.28;;;9.01;100.00
6514;BME280;3290;47.716;9.070;2022-11-15T08:49:04;96577.16;;;9.37;100.00
6514;BME280;3290;47.716;9.070;2022-11-15T08:51:30;96573.19;;;9.35;100.00
6514;BME280;3290;47.716;9.070;2022-11-15T08:53:55;96589.41;;;9.43;100.00
6514;BME280;3290;47.716;9.070;2022-11-15T08:56:20;96587.19;;;9.40;100.00
6514;BME280;3290;47.716;9.070;2022-11-15T08:58:46;96597.25;;;9.61;100.00
6514;BME280;3290;47.716;9.070;2022-11-15T09:01:17;96601.78;;;9.30;100.00
6514;BME280;3290;47.716;9.070;2022-11-15T09:03:43;96592.91;;;9.31;100.00
6514;BME280;3290;47.716;9.070;2022-11-15T09:06:08;96593.75;;;9.25;100.00
6514;BME280;3290;47.716;9.070;2022-11-15T09:08:34;96590.94;;;9.26;100.00
6514;BME280;3290;47.716;9.070;2022-11-15T09:11:03;96598.13;;;9.73;100.00
6514;BME280;3290;47.716;9.070;2022-11-15T09:13:28;96587.34;;;9.69;100.00
6514;BME280;3290;47.716;9.070;2022-11-15T09:15:57;96583.59;;;9.59;100.00
6514;BME280;3290;47.716;9.070;2022-11-15T09:18:24;96585.19;;;9.60;100.00
6514;BME280;3290;47.716;9.070;2022-11-15T09:20:49;96585.94;;;9.85;100.00
6514;BME280;3290;47.716;9.070;2022-11-15T09:23:15;96586.88;;;9.72;100.00
6514;BME280;3290;47.716;9.070;2022-11-15T09:25:40;96587.09;;;9.71;100.00
6514;BME280;3290;47.716;9.070;2022-11-15T09:28:06;96590.59;;;9.83;100.00
6514;BME280;3290;47.716;9.070;2022-11-15T09:30:32;96594.44;;;9.80;100.00
6514;BME280;3290;47.716;9.070;2022-11-15T09:32:57;96582.38;;;9.79;100.00
6514;BME280;3290;47.716;9.070;2022-11-15T09:35:22;96584.41;;;9.77;100.00
6514;BME280;3290;47.716;9.070;2022-11-15T09:37:48;96589.53;;;9.48;100.00
6514;BME280;3290;47.716;9.070;2022-11-15T09:40:14;96588.22;;;9.57;100.00
6514;BME280;3290;47.716;9.070;2022-11-15T09:43:17;96584.34;;;9.84;100.00
6514;BME280;3290;47.716;9.070;2022-11-15T09:46:05;96586.84;;;9.97;100.00
6514;BME280;3290;47.716;9.070;2022-11-15T09:51:04;96571.28;;;9.66;100.00
6514;BME280;3290;47.716;9.070;2022-11-15T09:53:39;96576.00;;;9.75;100.00
6514;BME280;3290;47.716;9.070;2022-11-15T09:56:16;96582.03;;;9.94;100.00
6514;BME280;3290;47.716;9.070;2022-11-15T10:04:02;96572.97;;;9.96;100.00
6514;BME280;3290;47.716;9.070;2022-11-15T10:06:28;96567.03;;;10.18;100.00
6514;BME280;3290;47.716;9.070;2022-11-15T10:09:05;96569.47;;;10.02;100.00
6514;BME280;3290;47.716;9.070;2022-11-15T10:11:35;96573.75;;;9.79;100.00
6514;BME280;3290;47.716;9.070;2022-11-15T10:14:08;96574.47;;;9.68;100.00
6514;BME280;3290;47.716;9.070;2022-11-15T10:24:46;96542.88;;;10.34;100.00
6514;BME280;3290;47.716;9.070;2022-11-15T10:27:18;96533.78;;;10.07;100.00
6514;BME280;3290;47.716;9.070;2022-11-15T10:29:48;96535.81;;;10.05;100.00
6514;BME280;3290;47.716;9.070;2022-11-15T10:32:15;96535.72;;;9.76;100.00
6514;BME280;3290;47.716;9.070;2022-11-15T10:34:41;96537.63;;;9.87;100.00
6514;BME280;3290;47.716;9.070;2022-11-15T10:37:07;96536.56;;;9.95;100.00
6514;BME280;3290;47.716;9.070;2022-11-15T10:39:32;96531.81;;;10.03;100.00
6514;BME280;3290;47.716;9.070;2022-11-15T10:42:27;96527.78;;;10.47;100.00
6514;BME280;3290;47.716;9.070;2022-11-15T10:44:53;96525.25;;;10.70;100.00
6514;BME280;3290;47.716;9.070;2022-11-15T10:47:30;96528.47;;;10.43;100.00
6514;BME280;3290;47.716;9.070;2022-11-15T10:50:01;96530.63;;;10.46;100.00
6514;BME280;3290;47.716;9.070;2022-11-15T10:52:28;96540.78;;;10.25;100.00
6514;BME280;3290;47.716;9.070;2022-11-15T10:55:03;96535.47;;;10.31;100.00
6514;BME280;3290;47.716;9.070;2022-11-15T10:57:54;96527.31;;;10.39;100.00
6514;BME280;3290;47.716;9.070;2022-11-15T11:02:58;96515.84;;;10.51;100.00
6514;BME280;3290;47.716;9.070;2022-11-15T11:05:38;96505.00;;;10.48;100.00
6514;BME280;3290;47.716;9.070;2022-11-15T11:08:20;96508.22;;;10.50;100.00
6514;BME280;3290;47.716;9.070;2022-11-15T11:10:57;96500.28;;;10.68;100.00
6514;BME280;3290;47.716;9.070;2022-11-15T11:13:43;96492.31;;;10.63;100.00
6514;BME280;3290;47.716;9.070;2022-11-15T11:19:02;96487.00;;;11.03;100.00
6514;BME280;3290;47.716;9.070;2022-11-15T11:24:43;96480.06;;;11.54;100.00
6514;BME280;3290;47.716;9.070;2022-11-15T11:27:33;96479.47;;;11.52;100.00
6514;BME280;3290;47.716;9.070;2022-11-15T11:35:54;96492.56;;;11.18;100.00
6514;BME280;3290;47.716;9.070;2022-11-15T11:38:42;96484.47;;;11.42;100.00
6514;BME280;3290;47.716;9.070;2022-11-15T11:46:48;96480.28;;;11.18;100.00
6514;BME280;3290;47.716;9.070;2022-11-15T11:49:44;96464.75;;;11.40;100.00
6514;BME280;3290;47.716;9.070;2022-11-15T11:55:22;96471.78;;;11.73;100.00
6514;BME280;3290;47.716;9.070;2022-11-15T11:58:52;96463.47;;;11.76;100.00
6514;BME280;3290;47.716;9.070;2022-11-15T12:00:59;96454.47;;;12.00;100.00
6514;BME280;3290;47.716;9.070;2022-11-15T12:03:41;96453.72;;;12.16;100.00
6514;BME280;3290;47.716;9.070;2022-11-15T12:08:56;96446.88;;;11.87;100.00
6514;BME280;3290;47.716;9.070;2022-11-15T12:11:29;96444.47;;;11.97;100.00
6514;BME280;3290;47.716;9.070;2022-11-15T12:14:00;96443.28;;;12.04;100.00
6514;BME280;3290;47.716;9.070;2022-11-15T12:16:28;96442.66;;;12.14;100.00
6514;BME280;3290;47.716;9.070;2022-11-15T12:18:58;96439.75;;;12.27;100.00
6514;BME280;3290;47.716;9.070;2022-11-15T12:21:46;96440.78;;;12.26;100.00
6514;BME280;3290;47.716;9.070;2022-11-15T12:24:18;96434.75;;;12.25;100.00
6514;BME280;3290;47.716;9.070;2022-11-15T12:29:27;96443.09;;;12.38;100.00
6514;BME280;3290;47.716;9.070;2022-11-15T12:31:55;96433.28;;;12.18;100.00
6514;BME280;3290;47.716;9.070;2022-11-15T12:34:40;96429.31;;;12.32;100.00
6514;BME280;3290;47.716;9.070;2022-11-15T12:37:47;96413.56;;;12.32;100.00
6514;BME280;3290;47.716;9.070;2022-11-15T12:40:25;96401.63;;;12.24;100.00
6514;BME280;3290;47.716;9.070;2022-11-15T12:58:55;96369.50;;;12.34;100.00
6514;BME280;3290;47.716;9.070;2022-11-15T13:09:50;96364.72;;;11.87;100.00
6514;BME280;3290;47.716;9.070;2022-11-15T13:14:59;96349.22;;;12.18;100.00
6514;BME280;3290;47.716;9.070;2022-11-15T13:17:30;96340.09;;;12.04;100.00
6514;BME280;3290;47.716;9.070;2022-11-15T13:28:09;96320.59;;;12.33;100.00
6514;BME280;3290;47.716;9.070;2022-11-15T13:30:36;96316.78;;;12.40;100.00
6514;BME280;3290;47.716;9.070;2022-11-15T13:33:13;96314.69;;;12.58;100.00
6514;BME280;3290;47.716;9.070;2022-11-15T13:35:41;96320.81;;;12.47;100.00
6514;BME280;3290;47.716;9.070;2022-11-15T13:38:25;96318.69;;;12.44;100.00
6514;BME280;3290;47.716;9.070;2022-11-15T13:40:54;96318.06;;;12.38;100.00
6514;BME280;3290;47.716;9.070;2022-11-15T13:43:35;96318.44;;;12.30;100.00
6514;BME280;3290;47.716;9.070;2022-11-15T13:46:10;96314.69;;;12.58;100.00
6514;BME280;3290;47.716;9.070;2022-11-15T13:48:37;96322.50;;;12.21;100.00
6514;BME280;3290;47.716;9.070;2022-11-15T13:51:06;96317.41;;;12.31;100.00
6514;BME280;3290;47.716;9.070;2022-11-15T13:53:34;96308.00;;;12.67;100.00
6514;BME280;3290;47.716;9.070;2022-11-15T13:56:02;96309.31;;;12.32;100.00
6514;BME280;3290;47.716;9.070;2022-11-15T13:58:29;96301.75;;;12.36;100.00
6514;BME280;3290;47.716;9.070;2022-11-15T14:01:03;96296.38;;;12.47;100.00
6514;BME280;3290;47.716;9.070;2022-11-15T14:03:31;96290.84;;;12.11;100.00
6514;BME280;3290;47.716;9.070;2022-11-15T14:06:11;96285.72;;;12.53;100.00
6514;BME280;3290;47.716;9.070;2022-11-15T14:08:38;96286.91;;;12.62;100.00
6514;BME280;3290;47.716;9.070;2022-11-15T14:11:07;96278.94;;;12.57;100.00
6514;BME280;3290;47.716;9.070;2022-11-15T14:13:33;96285.09;;;12.46;100.00
6514;BME280;3290;47.716;9.070;2022-11-15T14:16:14;96281.09;;;12.44;100.00
6514;BME280;3290;47.716;9.070;2022-11-15T14:18:49;96278.00;;;12.47;100.00
6514;BME280;3290;47.716;9.070;2022-11-15T14:21:16;96264.69;;;12.53;100.00
6514;BME280;3290;47.716;9.070;2022-11-15T14:23:42;96264.34;;;12.66;100.00
6514;BME280;3290;47.716;9.070;2022-11-15T14:26:26;96265.16;;;12.50;100.00
6514;BME280;3290;47.716;9.070;2022-11-15T14:28:52;96256.25;;;12.51;100.00
6514;BME280;3290;47.716;9.070;2022-11-15T14:31:19;96251.63;;;12.58;100.00
6514;BME280;3290;47.716;9.070;2022-11-15T14:33:44;96255.00;;;12.38;100.00
6514;BME280;3290;47.716;9.070;2022-11-15T14:38:35;96235.28;;;12.19;100.00
6514;BME280;3290;47.716;9.070;2022-11-15T14:41:01;96245.16;;;12.12;100.00
6514;BME280;3290;47.716;9.070;2022-11-15T14:43:26;96234.19;;;12.15;100.00
6514;BME280;3290;47.716;9.070;2022-11-15T14:45:51;96233.25;;;12.04;100.00
6514;BME280;3290;47.716;9.070;2022-11-15T14:48:17;96235.59;;;12.22;100.00
6514;BME280;3290;47.716;9.070;2022-11-15T14:50:43;96234.31;;;12.25;100.00
6514;BME280;3290;47.716;9.070;2022-11-15T14:53:14;96242.06;;;12.52;100.00
6514;BME280;3290;47.716;9.070;2022-11-15T14:55:40;96238.06;;;12.29;100.00
6514;BME280;3290;47.716;9.070;2022-11-15T14:58:06;96233.38;;;12.31;100.00
6514;BME280;3290;47.716;9.070;2022-11-15T15:00:39;96230.91;;;12.24;100.00
6514;BME280;3290;47.716;9.070;2022-11-15T15:03:05;96233.28;;;12.26;100.00
6514;BME280;3290;47.716;9.070;2022-11-15T15:05:35;96226.38;;;12.20;100.00
6514;BME280;3290;47.716;9.070;2022-11-15T15:08:01;96226.84;;;12.17;100.00
6514;BME280;3290;47.716;9.070;2022-11-15T15:10:34;96228.44;;;12.18;100.00
6514;BME280;3290;47.716;9.070;2022-11-15T15:13:00;96221.41;;;12.39;100.00
6514;BME280;3290;47.716;9.070;2022-11-15T15:15:31;96229.28;;;12.39;100.00
6514;BME280;3290;47.716;9.070;2022-11-15T15:17:57;96217.81;;;11.92;100.00
6514;BME280;3290;47.716;9.070;2022-11-15T15:20:22;96207.56;;;11.90;100.00